עמוד ראשי
METAR-TAF:

METAR-TAF

שדות תעופה :

מנדוסה, ארגנטינה

קו רוחב: 32-50S, קו אורך: 068-47W, גובה: 705מטר

תצפית מזג אוויר נוכחית

הדו"ח נערך לפני 45דקות, בשעה 10:00 UTC
רוח 5קשר מכיוון דרום/דרום-מערב
טמפרטורת 6 צלסיוס
לחות 42%
לחץ 1022 hPa
ראות 10 קילומטר או יותר
עננים פזורים בגובה 4000רגל

METAR: SAME 241000Z 20005KT 9999 SCT040 06/M06 Q1022

זמן: 07:45 (10:45 UTC)

תחזית

הדו"ח נערך לפני 5 שעות ו 45דקות, בשעה 05:00 UTC
תחזית בתוקף מ 24 ב 06 UTC עד 25 ב 06 UTC
רוח 10קשר מכיוון דרום/דרום-מזרח
ראות 10 קילומטר או יותר
עננים בינוניים בגובה 4000רגל
יעשה מ
24 ב 13 UTC עד 24 ב 15 UTC
עננים בינוניים בגובה 2500רגל
הסתברות 30% :
זמנית מ -
25 ב 00 UTC עד 25 ב 05 UTC
ראות: 5000מטר
עננים בינוניים בגובה 1000רגל
טפטוף,

TAF: SAME 240500Z 2406/2506 16010KT 9999 BKN040 TX11/2418Z TN05/2412Z BECMG 2413/2415 BKN025 PROB30 TEMPO 2500/2505 5000 DZ BKN010

תצפיות ותחזיות מזג אוויר לגבי יותר מ- 4,000 שדות תעופה ברחבי העולם. דוחות METAR ו- TAF.

התחנות הזמינות מסומנות בנקודות צהובות ואדומות על גבי המפה.

העבר את העכבר לנקודה הצבעונית על מנת לראות את שם התחנה.

לאחר מכן, לחץ כדי לראות את תוכן ואת תחזיות מזג האוויר.

כדי לשנות את המפה: לחץ על הכפתורים הירוקים עם הפלוס השחור כדי להתקרב; על הכפתור הירוק עם המקף כדי להתרחק; או בחיצים הירוקים למפות סמוכות.


METAR-TAF: